sensor_id;sensor_type;location;lat;lon;timestamp;P1;durP1;ratioP1;P2;durP2;ratioP2
6149;SDS011;3106;42.670;23.318;2023-08-24T00:01:27;28.10;;;14.10;;
6149;SDS011;3106;42.670;23.318;2023-08-24T00:03:54;18.27;;;14.37;;
6149;SDS011;3106;42.670;23.318;2023-08-24T00:06:21;22.30;;;14.80;;
6149;SDS011;3106;42.670;23.318;2023-08-24T00:08:48;25.23;;;15.83;;
6149;SDS011;3106;42.670;23.318;2023-08-24T00:11:14;24.60;;;16.07;;
6149;SDS011;3106;42.670;23.318;2023-08-24T00:13:43;28.60;;;14.30;;
6149;SDS011;3106;42.670;23.318;2023-08-24T00:16:13;25.57;;;13.10;;
6149;SDS011;3106;42.670;23.318;2023-08-24T00:18:40;21.87;;;15.30;;
6149;SDS011;3106;42.670;23.318;2023-08-24T00:21:07;22.33;;;15.03;;
6149;SDS011;3106;42.670;23.318;2023-08-24T00:23:34;23.87;;;13.67;;
6149;SDS011;3106;42.670;23.318;2023-08-24T00:26:01;28.27;;;14.50;;
6149;SDS011;3106;42.670;23.318;2023-08-24T00:28:28;23.13;;;13.73;;
6149;SDS011;3106;42.670;23.318;2023-08-24T00:30:56;22.40;;;13.47;;
6149;SDS011;3106;42.670;23.318;2023-08-24T00:33:23;25.53;;;15.47;;
6149;SDS011;3106;42.670;23.318;2023-08-24T00:35:50;24.30;;;15.60;;
6149;SDS011;3106;42.670;23.318;2023-08-24T00:38:17;24.23;;;15.43;;
6149;SDS011;3106;42.670;23.318;2023-08-24T00:40:44;17.40;;;13.67;;
6149;SDS011;3106;42.670;23.318;2023-08-24T00:43:10;20.77;;;14.67;;
6149;SDS011;3106;42.670;23.318;2023-08-24T00:45:37;20.63;;;14.53;;
6149;SDS011;3106;42.670;23.318;2023-08-24T00:48:06;27.63;;;17.03;;
6149;SDS011;3106;42.670;23.318;2023-08-24T00:50:34;21.77;;;15.60;;
6149;SDS011;3106;42.670;23.318;2023-08-24T00:53:01;24.30;;;15.33;;
6149;SDS011;3106;42.670;23.318;2023-08-24T00:55:28;21.10;;;16.20;;
6149;SDS011;3106;42.670;23.318;2023-08-24T00:57:55;22.90;;;15.30;;
6149;SDS011;3106;42.670;23.318;2023-08-24T01:00:23;22.27;;;14.67;;
6149;SDS011;3106;42.670;23.318;2023-08-24T01:02:49;22.10;;;15.50;;
6149;SDS011;3106;42.670;23.318;2023-08-24T01:05:18;24.67;;;14.93;;
6149;SDS011;3106;42.670;23.318;2023-08-24T01:07:45;20.43;;;14.57;;
6149;SDS011;3106;42.670;23.318;2023-08-24T01:10:12;21.57;;;15.47;;
6149;SDS011;3106;42.670;23.318;2023-08-24T01:12:42;21.00;;;14.97;;
6149;SDS011;3106;42.670;23.318;2023-08-24T01:15:26;24.67;;;14.97;;
6149;SDS011;3106;42.670;23.318;2023-08-24T01:17:58;24.10;;;15.70;;
6149;SDS011;3106;42.670;23.318;2023-08-24T01:20:31;21.20;;;14.30;;
6149;SDS011;3106;42.670;23.318;2023-08-24T01:23:03;22.27;;;15.17;;
6149;SDS011;3106;42.670;23.318;2023-08-24T01:25:37;19.30;;;13.87;;
6149;SDS011;3106;42.670;23.318;2023-08-24T01:28:08;18.00;;;13.57;;
6149;SDS011;3106;42.670;23.318;2023-08-24T01:30:37;23.50;;;14.43;;
6149;SDS011;3106;42.670;23.318;2023-08-24T01:33:04;23.80;;;15.27;;
6149;SDS011;3106;42.670;23.318;2023-08-24T01:35:36;21.60;;;15.07;;
6149;SDS011;3106;42.670;23.318;2023-08-24T01:38:04;22.90;;;14.93;;
6149;SDS011;3106;42.670;23.318;2023-08-24T01:40:33;23.53;;;15.17;;
6149;SDS011;3106;42.670;23.318;2023-08-24T01:43:07;19.13;;;14.63;;
6149;SDS011;3106;42.670;23.318;2023-08-24T01:45:39;24.00;;;16.60;;
6149;SDS011;3106;42.670;23.318;2023-08-24T01:48:08;22.03;;;16.03;;
6149;SDS011;3106;42.670;23.318;2023-08-24T01:50:36;21.80;;;15.10;;
6149;SDS011;3106;42.670;23.318;2023-08-24T01:53:04;21.70;;;16.60;;
6149;SDS011;3106;42.670;23.318;2023-08-24T01:55:30;27.60;;;16.60;;
6149;SDS011;3106;42.670;23.318;2023-08-24T01:57:57;22.97;;;15.07;;
6149;SDS011;3106;42.670;23.318;2023-08-24T02:00:26;24.20;;;16.00;;
6149;SDS011;3106;42.670;23.318;2023-08-24T02:02:53;22.13;;;15.33;;
6149;SDS011;3106;42.670;23.318;2023-08-24T02:05:20;21.10;;;14.30;;
6149;SDS011;3106;42.670;23.318;2023-08-24T02:07:49;24.43;;;15.07;;
6149;SDS011;3106;42.670;23.318;2023-08-24T02:10:16;23.23;;;15.30;;
6149;SDS011;3106;42.670;23.318;2023-08-24T02:12:43;24.40;;;16.73;;
6149;SDS011;3106;42.670;23.318;2023-08-24T02:15:10;22.37;;;17.33;;
6149;SDS011;3106;42.670;23.318;2023-08-24T02:17:38;22.23;;;16.47;;
6149;SDS011;3106;42.670;23.318;2023-08-24T02:20:05;23.63;;;16.40;;
6149;SDS011;3106;42.670;23.318;2023-08-24T02:22:34;30.10;;;17.07;;
6149;SDS011;3106;42.670;23.318;2023-08-24T02:25:01;24.43;;;16.10;;
6149;SDS011;3106;42.670;23.318;2023-08-24T02:27:30;26.50;;;17.33;;
6149;SDS011;3106;42.670;23.318;2023-08-24T02:29:56;25.87;;;16.37;;
6149;SDS011;3106;42.670;23.318;2023-08-24T02:32:23;28.10;;;17.30;;
6149;SDS011;3106;42.670;23.318;2023-08-24T02:34:51;22.90;;;16.20;;
6149;SDS011;3106;42.670;23.318;2023-08-24T02:37:18;25.63;;;17.23;;
6149;SDS011;3106;42.670;23.318;2023-08-24T02:39:45;20.90;;;16.40;;
6149;SDS011;3106;42.670;23.318;2023-08-24T02:42:12;23.63;;;16.87;;
6149;SDS011;3106;42.670;23.318;2023-08-24T02:44:39;24.90;;;16.63;;
6149;SDS011;3106;42.670;23.318;2023-08-24T02:47:06;22.90;;;16.47;;
6149;SDS011;3106;42.670;23.318;2023-08-24T02:49:32;22.87;;;17.00;;
6149;SDS011;3106;42.670;23.318;2023-08-24T02:52:01;29.40;;;17.20;;
6149;SDS011;3106;42.670;23.318;2023-08-24T02:54:27;20.43;;;15.70;;
6149;SDS011;3106;42.670;23.318;2023-08-24T02:56:54;22.70;;;16.37;;
6149;SDS011;3106;42.670;23.318;2023-08-24T02:59:21;27.83;;;17.00;;
6149;SDS011;3106;42.670;23.318;2023-08-24T03:01:48;21.90;;;15.80;;
6149;SDS011;3106;42.670;23.318;2023-08-24T03:04:15;23.50;;;15.73;;
6149;SDS011;3106;42.670;23.318;2023-08-24T03:06:43;27.03;;;16.70;;
6149;SDS011;3106;42.670;23.318;2023-08-24T03:09:11;22.27;;;15.93;;
6149;SDS011;3106;42.670;23.318;2023-08-24T03:11:38;22.73;;;16.70;;
6149;SDS011;3106;42.670;23.318;2023-08-24T03:14:05;24.80;;;17.30;;
6149;SDS011;3106;42.670;23.318;2023-08-24T03:16:33;23.10;;;15.97;;
6149;SDS011;3106;42.670;23.318;2023-08-24T03:19:00;23.17;;;17.27;;
6149;SDS011;3106;42.670;23.318;2023-08-24T03:21:27;22.67;;;16.20;;
6149;SDS011;3106;42.670;23.318;2023-08-24T03:23:55;24.93;;;15.50;;
6149;SDS011;3106;42.670;23.318;2023-08-24T03:26:23;26.83;;;17.67;;
6149;SDS011;3106;42.670;23.318;2023-08-24T03:28:50;22.70;;;15.70;;
6149;SDS011;3106;42.670;23.318;2023-08-24T03:31:17;21.77;;;16.27;;
6149;SDS011;3106;42.670;23.318;2023-08-24T03:33:45;23.17;;;16.40;;
6149;SDS011;3106;42.670;23.318;2023-08-24T03:36:12;27.33;;;16.47;;
6149;SDS011;3106;42.670;23.318;2023-08-24T03:38:39;27.13;;;17.73;;
6149;SDS011;3106;42.670;23.318;2023-08-24T03:41:05;28.23;;;16.50;;
6149;SDS011;3106;42.670;23.318;2023-08-24T03:43:34;25.00;;;15.60;;
6149;SDS011;3106;42.670;23.318;2023-08-24T03:46:02;22.27;;;16.20;;
6149;SDS011;3106;42.670;23.318;2023-08-24T03:48:31;25.50;;;17.40;;
6149;SDS011;3106;42.670;23.318;2023-08-24T03:50:58;28.63;;;17.97;;
6149;SDS011;3106;42.670;23.318;2023-08-24T03:53:25;28.60;;;20.00;;
6149;SDS011;3106;42.670;23.318;2023-08-24T03:55:52;36.90;;;17.93;;
6149;SDS011;3106;42.670;23.318;2023-08-24T03:58:19;27.60;;;19.07;;
6149;SDS011;3106;42.670;23.318;2023-08-24T04:00:47;29.43;;;20.43;;
6149;SDS011;3106;42.670;23.318;2023-08-24T04:03:14;29.07;;;19.23;;
6149;SDS011;3106;42.670;23.318;2023-08-24T04:05:42;30.37;;;20.90;;
6149;SDS011;3106;42.670;23.318;2023-08-24T04:08:08;29.30;;;17.97;;
6149;SDS011;3106;42.670;23.318;2023-08-24T04:10:35;27.37;;;18.83;;
6149;SDS011;3106;42.670;23.318;2023-08-24T04:13:03;34.63;;;20.77;;
6149;SDS011;3106;42.670;23.318;2023-08-24T04:15:30;30.87;;;19.80;;
6149;SDS011;3106;42.670;23.318;2023-08-24T04:17:59;28.93;;;20.13;;
6149;SDS011;3106;42.670;23.318;2023-08-24T04:20:25;31.30;;;20.47;;
6149;SDS011;3106;42.670;23.318;2023-08-24T04:22:52;33.33;;;20.87;;
6149;SDS011;3106;42.670;23.318;2023-08-24T04:25:20;41.90;;;20.10;;
6149;SDS011;3106;42.670;23.318;2023-08-24T04:27:47;34.43;;;19.60;;
6149;SDS011;3106;42.670;23.318;2023-08-24T04:30:14;42.80;;;22.30;;
6149;SDS011;3106;42.670;23.318;2023-08-24T04:32:41;32.57;;;21.47;;
6149;SDS011;3106;42.670;23.318;2023-08-24T04:35:09;37.43;;;22.13;;
6149;SDS011;3106;42.670;23.318;2023-08-24T04:37:36;46.10;;;20.53;;
6149;SDS011;3106;42.670;23.318;2023-08-24T04:40:04;29.40;;;20.40;;
6149;SDS011;3106;42.670;23.318;2023-08-24T04:42:32;28.13;;;19.60;;
6149;SDS011;3106;42.670;23.318;2023-08-24T04:44:59;34.63;;;20.97;;
6149;SDS011;3106;42.670;23.318;2023-08-24T04:47:26;35.70;;;21.20;;
6149;SDS011;3106;42.670;23.318;2023-08-24T04:49:53;40.27;;;25.13;;
6149;SDS011;3106;42.670;23.318;2023-08-24T04:52:21;34.20;;;22.20;;
6149;SDS011;3106;42.670;23.318;2023-08-24T04:54:48;35.23;;;21.80;;
6149;SDS011;3106;42.670;23.318;2023-08-24T04:57:16;42.50;;;21.17;;
6149;SDS011;3106;42.670;23.318;2023-08-24T04:59:43;37.00;;;21.67;;
6149;SDS011;3106;42.670;23.318;2023-08-24T05:02:10;35.83;;;21.60;;
6149;SDS011;3106;42.670;23.318;2023-08-24T05:04:36;37.70;;;23.13;;
6149;SDS011;3106;42.670;23.318;2023-08-24T05:07:03;32.30;;;21.97;;
6149;SDS011;3106;42.670;23.318;2023-08-24T05:09:31;49.20;;;22.70;;
6149;SDS011;3106;42.670;23.318;2023-08-24T05:11:58;36.23;;;21.83;;
6149;SDS011;3106;42.670;23.318;2023-08-24T05:14:25;35.13;;;21.57;;
6149;SDS011;3106;42.670;23.318;2023-08-24T05:16:52;46.43;;;22.33;;
6149;SDS011;3106;42.670;23.318;2023-08-24T05:19:19;35.47;;;22.27;;
6149;SDS011;3106;42.670;23.318;2023-08-24T05:21:46;37.23;;;20.80;;
6149;SDS011;3106;42.670;23.318;2023-08-24T05:24:12;51.93;;;20.17;;
6149;SDS011;3106;42.670;23.318;2023-08-24T05:26:41;43.67;;;21.50;;
6149;SDS011;3106;42.670;23.318;2023-08-24T05:29:07;29.40;;;19.37;;
6149;SDS011;3106;42.670;23.318;2023-08-24T05:31:34;36.63;;;21.10;;
6149;SDS011;3106;42.670;23.318;2023-08-24T05:34:01;31.47;;;21.40;;
6149;SDS011;3106;42.670;23.318;2023-08-24T05:36:28;34.13;;;20.90;;
6149;SDS011;3106;42.670;23.318;2023-08-24T05:38:55;37.67;;;21.87;;
6149;SDS011;3106;42.670;23.318;2023-08-24T05:41:22;74.97;;;25.27;;
6149;SDS011;3106;42.670;23.318;2023-08-24T05:43:50;37.37;;;21.47;;
6149;SDS011;3106;42.670;23.318;2023-08-24T05:46:18;30.23;;;21.10;;
6149;SDS011;3106;42.670;23.318;2023-08-24T05:48:45;34.60;;;20.17;;
6149;SDS011;3106;42.670;23.318;2023-08-24T05:51:12;35.10;;;19.60;;
6149;SDS011;3106;42.670;23.318;2023-08-24T05:53:39;37.90;;;20.87;;
6149;SDS011;3106;42.670;23.318;2023-08-24T05:56:06;36.33;;;21.20;;
6149;SDS011;3106;42.670;23.318;2023-08-24T05:58:33;41.77;;;25.13;;
6149;SDS011;3106;42.670;23.318;2023-08-24T06:01:02;61.03;;;36.67;;
6149;SDS011;3106;42.670;23.318;2023-08-24T06:03:29;51.40;;;23.60;;
6149;SDS011;3106;42.670;23.318;2023-08-24T06:06:00;55.77;;;20.00;;
6149;SDS011;3106;42.670;23.318;2023-08-24T06:08:28;76.57;;;26.30;;
6149;SDS011;3106;42.670;23.318;2023-08-24T06:10:56;73.43;;;21.57;;
6149;SDS011;3106;42.670;23.318;2023-08-24T06:13:23;37.53;;;21.53;;
6149;SDS011;3106;42.670;23.318;2023-08-24T06:15:50;30.27;;;17.97;;
6149;SDS011;3106;42.670;23.318;2023-08-24T06:18:18;42.63;;;21.20;;
6149;SDS011;3106;42.670;23.318;2023-08-24T06:20:45;32.70;;;20.50;;
6149;SDS011;3106;42.670;23.318;2023-08-24T06:23:14;40.70;;;18.20;;
6149;SDS011;3106;42.670;23.318;2023-08-24T06:25:42;26.03;;;17.87;;
6149;SDS011;3106;42.670;23.318;2023-08-24T06:28:10;27.93;;;18.37;;
6149;SDS011;3106;42.670;23.318;2023-08-24T06:30:41;38.70;;;18.77;;
6149;SDS011;3106;42.670;23.318;2023-08-24T06:33:09;33.83;;;18.30;;
6149;SDS011;3106;42.670;23.318;2023-08-24T06:35:38;35.77;;;16.93;;
6149;SDS011;3106;42.670;23.318;2023-08-24T06:38:09;25.60;;;17.73;;
6149;SDS011;3106;42.670;23.318;2023-08-24T06:40:38;30.10;;;17.13;;
6149;SDS011;3106;42.670;23.318;2023-08-24T06:43:06;35.27;;;17.83;;
6149;SDS011;3106;42.670;23.318;2023-08-24T06:45:34;33.43;;;18.30;;
6149;SDS011;3106;42.670;23.318;2023-08-24T06:48:00;47.17;;;19.20;;
6149;SDS011;3106;42.670;23.318;2023-08-24T06:50:28;31.33;;;16.73;;
6149;SDS011;3106;42.670;23.318;2023-08-24T06:52:56;38.67;;;20.00;;
6149;SDS011;3106;42.670;23.318;2023-08-24T06:55:23;25.13;;;18.27;;
6149;SDS011;3106;42.670;23.318;2023-08-24T06:57:50;33.97;;;18.33;;
6149;SDS011;3106;42.670;23.318;2023-08-24T07:00:20;25.40;;;17.23;;
6149;SDS011;3106;42.670;23.318;2023-08-24T07:02:49;27.87;;;17.33;;
6149;SDS011;3106;42.670;23.318;2023-08-24T07:05:16;26.97;;;17.00;;
6149;SDS011;3106;42.670;23.318;2023-08-24T07:07:44;31.50;;;18.40;;
6149;SDS011;3106;42.670;23.318;2023-08-24T07:10:12;42.00;;;17.33;;
6149;SDS011;3106;42.670;23.318;2023-08-24T07:12:40;35.60;;;15.63;;
6149;SDS011;3106;42.670;23.318;2023-08-24T07:15:07;36.20;;;16.73;;
6149;SDS011;3106;42.670;23.318;2023-08-24T07:17:35;20.97;;;16.00;;
6149;SDS011;3106;42.670;23.318;2023-08-24T07:20:05;25.83;;;16.00;;
6149;SDS011;3106;42.670;23.318;2023-08-24T07:22:34;25.00;;;16.07;;
6149;SDS011;3106;42.670;23.318;2023-08-24T07:25:00;32.70;;;15.90;;
6149;SDS011;3106;42.670;23.318;2023-08-24T07:27:31;28.13;;;16.13;;
6149;SDS011;3106;42.670;23.318;2023-08-24T07:29:58;36.73;;;16.40;;
6149;SDS011;3106;42.670;23.318;2023-08-24T07:32:26;21.90;;;15.67;;
6149;SDS011;3106;42.670;23.318;2023-08-24T07:34:53;30.50;;;19.00;;
6149;SDS011;3106;42.670;23.318;2023-08-24T07:37:27;39.63;;;18.83;;
6149;SDS011;3106;42.670;23.318;2023-08-24T07:39:58;22.43;;;16.17;;
6149;SDS011;3106;42.670;23.318;2023-08-24T07:42:25;26.23;;;16.43;;
6149;SDS011;3106;42.670;23.318;2023-08-24T07:44:53;23.07;;;17.50;;
6149;SDS011;3106;42.670;23.318;2023-08-24T07:47:20;30.00;;;16.10;;
6149;SDS011;3106;42.670;23.318;2023-08-24T07:49:49;22.30;;;16.03;;
6149;SDS011;3106;42.670;23.318;2023-08-24T07:52:17;26.20;;;16.13;;
6149;SDS011;3106;42.670;23.318;2023-08-24T07:54:46;30.53;;;16.03;;
6149;SDS011;3106;42.670;23.318;2023-08-24T07:57:13;30.50;;;16.77;;
6149;SDS011;3106;42.670;23.318;2023-08-24T07:59:40;31.77;;;16.60;;
6149;SDS011;3106;42.670;23.318;2023-08-24T08:02:08;26.50;;;14.73;;
6149;SDS011;3106;42.670;23.318;2023-08-24T08:04:37;23.27;;;16.40;;
6149;SDS011;3106;42.670;23.318;2023-08-24T08:07:04;24.13;;;15.80;;
6149;SDS011;3106;42.670;23.318;2023-08-24T08:09:31;25.13;;;16.60;;
6149;SDS011;3106;42.670;23.318;2023-08-24T08:11:58;22.53;;;16.37;;
6149;SDS011;3106;42.670;23.318;2023-08-24T08:14:25;31.67;;;17.13;;
6149;SDS011;3106;42.670;23.318;2023-08-24T08:16:52;33.60;;;15.57;;
6149;SDS011;3106;42.670;23.318;2023-08-24T08:19:21;19.93;;;14.57;;
6149;SDS011;3106;42.670;23.318;2023-08-24T08:21:50;27.70;;;14.87;;
6149;SDS011;3106;42.670;23.318;2023-08-24T08:24:17;18.57;;;13.30;;
6149;SDS011;3106;42.670;23.318;2023-08-24T08:26:44;19.80;;;13.47;;
6149;SDS011;3106;42.670;23.318;2023-08-24T08:29:11;17.77;;;13.53;;
6149;SDS011;3106;42.670;23.318;2023-08-24T08:31:39;19.73;;;13.87;;
6149;SDS011;3106;42.670;23.318;2023-08-24T08:34:07;18.83;;;13.67;;
6149;SDS011;3106;42.670;23.318;2023-08-24T08:36:37;25.03;;;13.20;;
6149;SDS011;3106;42.670;23.318;2023-08-24T08:39:04;22.13;;;14.23;;
6149;SDS011;3106;42.670;23.318;2023-08-24T08:41:33;18.90;;;13.50;;
6149;SDS011;3106;42.670;23.318;2023-08-24T08:44:08;29.70;;;15.70;;
6149;SDS011;3106;42.670;23.318;2023-08-24T08:46:38;22.43;;;17.70;;
6149;SDS011;3106;42.670;23.318;2023-08-24T08:49:06;30.90;;;20.77;;
6149;SDS011;3106;42.670;23.318;2023-08-24T08:51:35;21.50;;;15.80;;
6149;SDS011;3106;42.670;23.318;2023-08-24T08:54:03;23.87;;;15.10;;
6149;SDS011;3106;42.670;23.318;2023-08-24T08:56:31;41.30;;;17.27;;
6149;SDS011;3106;42.670;23.318;2023-08-24T08:58:58;25.57;;;19.50;;
6149;SDS011;3106;42.670;23.318;2023-08-24T09:01:27;23.53;;;17.23;;
6149;SDS011;3106;42.670;23.318;2023-08-24T09:03:54;17.77;;;14.83;;
6149;SDS011;3106;42.670;23.318;2023-08-24T09:06:23;19.43;;;14.70;;
6149;SDS011;3106;42.670;23.318;2023-08-24T09:08:51;20.47;;;14.37;;
6149;SDS011;3106;42.670;23.318;2023-08-24T09:11:19;23.90;;;14.80;;
6149;SDS011;3106;42.670;23.318;2023-08-24T09:13:46;18.30;;;14.83;;
6149;SDS011;3106;42.670;23.318;2023-08-24T09:16:13;20.23;;;13.43;;
6149;SDS011;3106;42.670;23.318;2023-08-24T09:18:43;27.37;;;14.73;;
6149;SDS011;3106;42.670;23.318;2023-08-24T09:21:13;16.83;;;13.43;;
6149;SDS011;3106;42.670;23.318;2023-08-24T09:23:43;21.00;;;13.97;;
6149;SDS011;3106;42.670;23.318;2023-08-24T09:26:13;20.53;;;14.57;;
6149;SDS011;3106;42.670;23.318;2023-08-24T09:28:42;25.40;;;14.23;;
6149;SDS011;3106;42.670;23.318;2023-08-24T09:31:11;20.53;;;14.90;;
6149;SDS011;3106;42.670;23.318;2023-08-24T09:33:38;20.60;;;14.60;;
6149;SDS011;3106;42.670;23.318;2023-08-24T09:36:06;18.33;;;15.13;;
6149;SDS011;3106;42.670;23.318;2023-08-24T09:38:33;17.60;;;13.93;;
6149;SDS011;3106;42.670;23.318;2023-08-24T09:41:01;29.57;;;15.23;;
6149;SDS011;3106;42.670;23.318;2023-08-24T09:43:30;19.83;;;15.90;;
6149;SDS011;3106;42.670;23.318;2023-08-24T09:45:56;23.33;;;17.23;;
6149;SDS011;3106;42.670;23.318;2023-08-24T09:48:24;20.20;;;17.33;;
6149;SDS011;3106;42.670;23.318;2023-08-24T09:50:51;22.33;;;16.80;;
6149;SDS011;3106;42.670;23.318;2023-08-24T09:53:18;22.53;;;16.40;;
6149;SDS011;3106;42.670;23.318;2023-08-24T09:55:48;25.73;;;17.03;;
6149;SDS011;3106;42.670;23.318;2023-08-24T09:58:19;22.33;;;14.90;;
6149;SDS011;3106;42.670;23.318;2023-08-24T10:00:48;19.47;;;13.30;;
6149;SDS011;3106;42.670;23.318;2023-08-24T10:03:17;19.00;;;13.27;;
6149;SDS011;3106;42.670;23.318;2023-08-24T10:05:50;18.27;;;13.57;;
6149;SDS011;3106;42.670;23.318;2023-08-24T10:08:20;26.30;;;14.53;;
6149;SDS011;3106;42.670;23.318;2023-08-24T10:10:49;18.13;;;13.90;;
6149;SDS011;3106;42.670;23.318;2023-08-24T10:13:22;22.83;;;13.83;;
6149;SDS011;3106;42.670;23.318;2023-08-24T10:15:57;22.40;;;14.97;;
6149;SDS011;3106;42.670;23.318;2023-08-24T10:18:25;20.53;;;13.80;;
6149;SDS011;3106;42.670;23.318;2023-08-24T10:20:52;19.80;;;14.03;;
6149;SDS011;3106;42.670;23.318;2023-08-24T10:23:20;16.60;;;12.97;;
6149;SDS011;3106;42.670;23.318;2023-08-24T10:25:48;20.47;;;12.80;;
6149;SDS011;3106;42.670;23.318;2023-08-24T10:28:18;15.83;;;13.97;;
6149;SDS011;3106;42.670;23.318;2023-08-24T10:30:46;17.30;;;13.30;;
6149;SDS011;3106;42.670;23.318;2023-08-24T10:33:15;13.40;;;12.00;;
6149;SDS011;3106;42.670;23.318;2023-08-24T10:35:44;16.00;;;12.70;;
6149;SDS011;3106;42.670;23.318;2023-08-24T10:38:22;17.10;;;14.30;;
6149;SDS011;3106;42.670;23.318;2023-08-24T10:40:51;22.00;;;13.37;;
6149;SDS011;3106;42.670;23.318;2023-08-24T10:43:18;15.90;;;12.20;;
6149;SDS011;3106;42.670;23.318;2023-08-24T10:45:55;14.13;;;12.07;;
6149;SDS011;3106;42.670;23.318;2023-08-24T10:48:28;22.20;;;14.53;;
6149;SDS011;3106;42.670;23.318;2023-08-24T10:53:46;20.23;;;18.00;;
6149;SDS011;3106;42.670;23.318;2023-08-24T10:56:14;21.37;;;14.10;;
6149;SDS011;3106;42.670;23.318;2023-08-24T10:58:42;21.30;;;14.87;;
6149;SDS011;3106;42.670;23.318;2023-08-24T11:01:19;30.53;;;15.33;;
6149;SDS011;3106;42.670;23.318;2023-08-24T11:03:54;38.27;;;14.57;;
6149;SDS011;3106;42.670;23.318;2023-08-24T11:06:22;24.33;;;13.73;;
6149;SDS011;3106;42.670;23.318;2023-08-24T11:09:04;26.43;;;12.80;;
6149;SDS011;3106;42.670;23.318;2023-08-24T11:11:34;19.80;;;13.57;;
6149;SDS011;3106;42.670;23.318;2023-08-24T11:14:14;21.13;;;14.03;;
6149;SDS011;3106;42.670;23.318;2023-08-24T11:16:43;15.70;;;11.53;;
6149;SDS011;3106;42.670;23.318;2023-08-24T11:19:12;18.73;;;11.90;;
6149;SDS011;3106;42.670;23.318;2023-08-24T11:21:40;27.43;;;13.97;;
6149;SDS011;3106;42.670;23.318;2023-08-24T11:24:08;25.27;;;12.97;;
6149;SDS011;3106;42.670;23.318;2023-08-24T11:26:44;18.40;;;12.50;;
6149;SDS011;3106;42.670;23.318;2023-08-24T11:29:13;17.60;;;13.20;;
6149;SDS011;3106;42.670;23.318;2023-08-24T11:31:40;25.07;;;13.30;;
6149;SDS011;3106;42.670;23.318;2023-08-24T11:34:07;21.50;;;13.93;;
6149;SDS011;3106;42.670;23.318;2023-08-24T11:36:42;17.43;;;13.30;;
6149;SDS011;3106;42.670;23.318;2023-08-24T11:39:19;17.00;;;12.97;;
6149;SDS011;3106;42.670;23.318;2023-08-24T11:41:57;15.63;;;12.10;;
6149;SDS011;3106;42.670;23.318;2023-08-24T11:44:25;29.70;;;16.50;;
6149;SDS011;3106;42.670;23.318;2023-08-24T11:46:52;25.00;;;13.47;;
6149;SDS011;3106;42.670;23.318;2023-08-24T11:49:19;21.30;;;15.13;;
6149;SDS011;3106;42.670;23.318;2023-08-24T11:51:47;19.50;;;13.10;;
6149;SDS011;3106;42.670;23.318;2023-08-24T11:54:16;20.43;;;11.60;;
6149;SDS011;3106;42.670;23.318;2023-08-24T11:56:43;20.40;;;12.50;;
6149;SDS011;3106;42.670;23.318;2023-08-24T11:59:11;15.23;;;12.00;;
6149;SDS011;3106;42.670;23.318;2023-08-24T12:01:39;15.10;;;11.50;;
6149;SDS011;3106;42.670;23.318;2023-08-24T12:04:07;17.63;;;11.40;;
6149;SDS011;3106;42.670;23.318;2023-08-24T12:06:34;22.80;;;12.60;;
6149;SDS011;3106;42.670;23.318;2023-08-24T12:09:04;19.77;;;13.77;;
6149;SDS011;3106;42.670;23.318;2023-08-24T12:11:35;17.90;;;13.83;;
6149;SDS011;3106;42.670;23.318;2023-08-24T12:14:02;20.77;;;12.30;;
6149;SDS011;3106;42.670;23.318;2023-08-24T12:16:30;21.87;;;13.50;;
6149;SDS011;3106;42.670;23.318;2023-08-24T12:18:59;19.63;;;12.33;;
6149;SDS011;3106;42.670;23.318;2023-08-24T12:21:28;28.13;;;15.93;;
6149;SDS011;3106;42.670;23.318;2023-08-24T12:23:56;21.60;;;14.80;;
6149;SDS011;3106;42.670;23.318;2023-08-24T12:26:26;24.33;;;15.87;;
6149;SDS011;3106;42.670;23.318;2023-08-24T12:28:55;23.20;;;13.70;;
6149;SDS011;3106;42.670;23.318;2023-08-24T12:31:28;19.33;;;12.80;;
6149;SDS011;3106;42.670;23.318;2023-08-24T12:33:59;17.13;;;12.13;;
6149;SDS011;3106;42.670;23.318;2023-08-24T12:36:28;21.00;;;12.40;;
6149;SDS011;3106;42.670;23.318;2023-08-24T12:38:55;13.40;;;11.80;;
6149;SDS011;3106;42.670;23.318;2023-08-24T12:41:24;21.40;;;12.33;;
6149;SDS011;3106;42.670;23.318;2023-08-24T12:43:54;23.67;;;12.30;;
6149;SDS011;3106;42.670;23.318;2023-08-24T12:46:21;38.33;;;13.70;;
6149;SDS011;3106;42.670;23.318;2023-08-24T12:48:49;19.63;;;11.93;;
6149;SDS011;3106;42.670;23.318;2023-08-24T12:51:16;12.70;;;10.63;;
6149;SDS011;3106;42.670;23.318;2023-08-24T12:53:43;24.30;;;12.60;;
6149;SDS011;3106;42.670;23.318;2023-08-24T12:56:10;16.87;;;12.37;;
6149;SDS011;3106;42.670;23.318;2023-08-24T12:58:38;22.07;;;12.30;;
6149;SDS011;3106;42.670;23.318;2023-08-24T13:01:05;16.87;;;12.40;;
6149;SDS011;3106;42.670;23.318;2023-08-24T13:03:32;19.27;;;13.93;;
6149;SDS011;3106;42.670;23.318;2023-08-24T13:06:01;21.27;;;12.40;;
6149;SDS011;3106;42.670;23.318;2023-08-24T13:08:29;16.47;;;11.33;;
6149;SDS011;3106;42.670;23.318;2023-08-24T13:10:56;15.80;;;12.30;;
6149;SDS011;3106;42.670;23.318;2023-08-24T13:13:23;23.70;;;13.70;;
6149;SDS011;3106;42.670;23.318;2023-08-24T13:15:51;24.50;;;13.50;;
6149;SDS011;3106;42.670;23.318;2023-08-24T13:18:18;19.77;;;13.27;;
6149;SDS011;3106;42.670;23.318;2023-08-24T13:20:45;17.90;;;12.03;;
6149;SDS011;3106;42.670;23.318;2023-08-24T13:23:12;24.03;;;13.23;;
6149;SDS011;3106;42.670;23.318;2023-08-24T13:25:39;19.20;;;12.77;;
6149;SDS011;3106;42.670;23.318;2023-08-24T13:28:06;25.83;;;12.70;;
6149;SDS011;3106;42.670;23.318;2023-08-24T13:30:33;18.30;;;12.60;;
6149;SDS011;3106;42.670;23.318;2023-08-24T13:33:02;22.03;;;13.47;;
6149;SDS011;3106;42.670;23.318;2023-08-24T13:35:29;19.70;;;12.63;;
6149;SDS011;3106;42.670;23.318;2023-08-24T13:37:56;18.70;;;12.80;;
6149;SDS011;3106;42.670;23.318;2023-08-24T13:40:23;23.43;;;13.53;;
6149;SDS011;3106;42.670;23.318;2023-08-24T13:42:50;17.77;;;12.87;;
6149;SDS011;3106;42.670;23.318;2023-08-24T13:45:17;25.60;;;12.57;;
6149;SDS011;3106;42.670;23.318;2023-08-24T13:47:44;26.97;;;13.23;;
6149;SDS011;3106;42.670;23.318;2023-08-24T13:50:12;23.83;;;13.90;;
6149;SDS011;3106;42.670;23.318;2023-08-24T13:52:39;21.03;;;13.37;;
6149;SDS011;3106;42.670;23.318;2023-08-24T13:55:06;30.33;;;13.00;;
6149;SDS011;3106;42.670;23.318;2023-08-24T13:57:34;16.03;;;12.20;;
6149;SDS011;3106;42.670;23.318;2023-08-24T14:00:01;30.57;;;17.20;;
6149;SDS011;3106;42.670;23.318;2023-08-24T14:02:29;31.00;;;13.43;;
6149;SDS011;3106;42.670;23.318;2023-08-24T14:04:56;20.60;;;13.60;;
6149;SDS011;3106;42.670;23.318;2023-08-24T14:07:24;20.23;;;12.80;;
6149;SDS011;3106;42.670;23.318;2023-08-24T14:09:51;19.43;;;13.80;;
6149;SDS011;3106;42.670;23.318;2023-08-24T14:12:18;21.00;;;14.17;;
6149;SDS011;3106;42.670;23.318;2023-08-24T14:14:45;21.07;;;13.77;;
6149;SDS011;3106;42.670;23.318;2023-08-24T14:17:12;20.80;;;12.47;;
6149;SDS011;3106;42.670;23.318;2023-08-24T14:19:39;25.20;;;13.00;;
6149;SDS011;3106;42.670;23.318;2023-08-24T14:22:06;22.23;;;13.73;;
6149;SDS011;3106;42.670;23.318;2023-08-24T14:24:35;21.60;;;13.43;;
6149;SDS011;3106;42.670;23.318;2023-08-24T14:27:02;21.80;;;15.70;;
6149;SDS011;3106;42.670;23.318;2023-08-24T14:29:29;22.17;;;13.37;;
6149;SDS011;3106;42.670;23.318;2023-08-24T14:31:56;22.60;;;13.20;;
6149;SDS011;3106;42.670;23.318;2023-08-24T14:34:23;18.40;;;13.30;;
6149;SDS011;3106;42.670;23.318;2023-08-24T14:36:49;18.30;;;13.30;;
6149;SDS011;3106;42.670;23.318;2023-08-24T14:39:16;20.07;;;13.00;;
6149;SDS011;3106;42.670;23.318;2023-08-24T14:41:45;18.23;;;13.00;;